Trade Center, Virginia
Current Conditions -  °F | °C
As of 6:52 AM on Thursday 29 Jan 2015 (Local Time) from KDCA Reporting Station
Scattered Clouds Scattered Clouds  
Wind Chill: 28°   Ceiling: Unl
Heat Index: 28°   Visibility: 10mi
Dew Point: 13°   Wind: 0mph
Humidity: 53%   Direction: NA
Pressure: 30.35"   Gusts: NA
Location:  38.8134°N, 77.1153°W
Report Text: KDCA 291152Z 00000KT 10SM SCT250 M02/M11 A3035 RMK AO2 SLP275 T10221106 11017 21033 53001
Loading
Personal Weather Stations






























Interactive Weather Map New forecast layout! Learn more

10-Day Weather Forecast

Advertisements
Track Severe Weather on mobile